Time;durP1;ratioP1;P1;durP2;ratioP2;P2;SDS_P1;SDS_P2;PMS_P1;PMS_P2;Temp;Humidity;BMP_temperature;BMP_pressure;BME280_temperature;BME280_humidity;BME280_pressure;Samples;Min_cycle;Max_cycle;Signal;HPM_P1;HPM_P2
2023/01/26 00:01:18;;;;;;;31.73;28.97;;;5.90;32.20;;;;;;5009022;28;20482;-50
2023/01/26 00:03:44;;;;;;;30.93;28.33;;;5.90;32.20;;;;;;5008046;28;20507;-52
2023/01/26 00:06:13;;;;;;;35.43;32.23;;;5.90;32.10;;;;;;5008345;28;20912;-51
2023/01/26 00:08:41;;;;;;;33.50;30.40;;;5.50;33.20;;;;;;5008039;28;20424;-52
2023/01/26 00:11:09;;;;;;;33.93;31.07;;;4.90;35.90;;;;;;5007300;28;20416;-51
2023/01/26 00:13:35;;;;;;;33.73;30.80;;;4.30;37.60;;;;;;5008649;28;20507;-51
2023/01/26 00:16:02;;;;;;;35.70;32.73;;;4.20;38.60;;;;;;5007887;28;20527;-52
2023/01/26 00:18:29;;;;;;;32.30;29.37;;;4.40;38.40;;;;;;5008166;28;20440;-52
2023/01/26 00:20:59;;;;;;;33.70;30.60;;;4.40;38.00;;;;;;5007738;28;20428;-50
2023/01/26 00:23:26;;;;;;;36.47;33.27;;;4.50;38.10;;;;;;5007953;28;20499;-52
2023/01/26 00:25:52;;;;;;;35.43;32.07;;;4.40;38.00;;;;;;5008056;28;20464;-51
2023/01/26 00:28:17;;;;;;;33.43;30.50;;;4.20;39.70;;;;;;5008271;28;20450;-51
2023/01/26 00:30:43;;;;;;;35.97;32.77;;;4.50;39.40;;;;;;5007813;28;20240;-52
2023/01/26 00:33:09;;;;;;;35.20;31.83;;;4.80;38.10;;;;;;5007638;28;20295;-51
2023/01/26 00:35:34;;;;;;;33.33;30.30;;;4.90;37.10;;;;;;5007434;28;20424;-50
2023/01/26 00:38:00;;;;;;;34.20;31.00;;;4.90;37.10;;;;;;5007793;28;20192;-50
2023/01/26 00:40:26;;;;;;;36.07;32.73;;;4.80;36.30;;;;;;5007496;28;20315;-53
2023/01/26 00:42:53;;;;;;;36.73;33.33;;;4.60;37.70;;;;;;5007651;28;20702;-53
2023/01/26 00:45:19;;;;;;;33.20;30.20;;;4.60;38.10;;;;;;5007882;28;20189;-49
2023/01/26 00:47:45;;;;;;;34.50;31.50;;;4.30;37.90;;;;;;5007959;28;20428;-50
2023/01/26 00:50:11;;;;;;;32.93;30.07;;;4.50;38.60;;;;;;5007268;28;20421;-51
2023/01/26 00:52:37;;;;;;;32.83;30.10;;;4.70;38.20;;;;;;5006862;28;20634;-54
2023/01/26 00:55:03;;;;;;;35.97;32.77;;;4.70;36.80;;;;;;5007649;28;20425;-54
2023/01/26 00:57:29;;;;;;;30.97;28.27;;;4.60;37.00;;;;;;5007910;28;20183;-51
2023/01/26 00:59:54;;;;;;;33.47;30.40;;;4.60;38.10;;;;;;5007333;28;20832;-50
2023/01/26 01:02:20;;;;;;;32.17;29.47;;;4.80;37.20;;;;;;5007408;28;20644;-51
2023/01/26 01:04:46;;;;;;;34.10;31.10;;;4.90;36.80;;;;;;5007682;28;20519;-52
2023/01/26 01:07:11;;;;;;;34.43;31.53;;;5.00;36.70;;;;;;5007121;28;20213;-51
2023/01/26 01:09:37;;;;;;;33.63;30.43;;;5.20;36.60;;;;;;5007419;28;20178;-53
2023/01/26 01:12:03;;;;;;;32.80;29.80;;;5.30;35.80;;;;;;4991374;28;20177;-49
2023/01/26 01:14:28;;;;;;;33.70;30.67;;;5.40;35.10;;;;;;5007100;28;20181;-52
2023/01/26 01:16:54;;;;;;;32.70;29.90;;;5.50;34.70;;;;;;5007274;28;20181;-51
2023/01/26 01:19:20;;;;;;;35.37;32.37;;;5.50;34.60;;;;;;5008819;28;20188;-50
2023/01/26 01:21:45;;;;;;;33.67;30.53;;;5.60;34.80;;;;;;5007743;28;20185;-52
2023/01/26 01:24:11;;;;;;;32.67;29.83;;;5.60;34.00;;;;;;5010658;28;20192;-50
2023/01/26 01:26:38;;;;;;;30.10;27.60;;;5.60;34.50;;;;;;5011578;28;20699;-53
2023/01/26 01:29:04;;;;;;;32.33;29.23;;;5.60;34.20;;;;;;5010455;28;20420;-54
2023/01/26 01:31:30;;;;;;;34.27;31.23;;;5.70;33.90;;;;;;5010835;28;20707;-53
2023/01/26 01:33:56;;;;;;;33.13;30.13;;;5.60;34.20;;;;;;5010766;28;20503;-52
2023/01/26 01:36:22;;;;;;;31.73;28.90;;;5.70;34.20;;;;;;5010866;28;20604;-52
2023/01/26 01:38:48;;;;;;;32.83;30.13;;;5.80;33.40;;;;;;5010555;28;20428;-52
2023/01/26 01:41:20;;;;;;;30.90;28.20;;;5.80;33.40;;;;;;5010667;28;20412;-53
2023/01/26 01:43:45;;;;;;;30.87;28.10;;;5.80;33.00;;;;;;5010783;28;20479;-54
2023/01/26 01:46:29;;;;;;;31.37;28.70;;;5.70;33.10;;;;;;5010166;28;20968;-53
2023/01/26 01:49:03;;;;;;;30.77;27.90;;;5.70;33.40;;;;;;5010696;28;20205;-53
2023/01/26 01:51:43;;;;;;;30.73;28.13;;;5.70;33.00;;;;;;5010738;28;20427;-52
2023/01/26 01:54:14;;;;;;;28.27;25.90;;;5.70;33.20;;;;;;5010234;28;20431;-54
2023/01/26 01:56:44;;;;;;;30.20;27.27;;;5.70;32.70;;;;;;5010295;28;20420;-52
2023/01/26 01:59:11;;;;;;;29.50;27.00;;;5.60;33.20;;;;;;5010154;28;20499;-53
2023/01/26 02:01:37;;;;;;;30.17;27.57;;;5.60;32.90;;;;;;5010361;28;20420;-52
2023/01/26 02:04:05;;;;;;;31.00;28.17;;;5.60;33.00;;;;;;5010389;28;20810;-53
2023/01/26 02:06:52;;;;;;;30.07;27.47;;;5.60;33.10;;;;;;5010107;28;20347;-52
2023/01/26 02:12:10;;;;;;;28.20;25.70;;;5.60;33.30;;;;;;5012504;28;20500;-53
2023/01/26 02:14:36;;;;;;;28.60;26.20;;;5.60;33.10;;;;;;5010781;28;20408;-50
2023/01/26 02:17:01;;;;;;;30.13;27.53;;;5.70;32.90;;;;;;5010353;28;20424;-50
2023/01/26 02:19:56;;;;;;;30.07;27.40;;;5.70;32.80;;;;;;5010269;28;20204;-50
2023/01/26 02:22:33;;;;;;;29.83;27.23;;;5.70;32.60;;;;;;5000951;28;20676;-54
2023/01/26 02:25:05;;;;;;;29.73;27.10;;;5.70;32.80;;;;;;5010816;28;20952;-51
2023/01/26 02:27:31;;;;;;;28.77;26.13;;;5.70;32.90;;;;;;5010031;28;20468;-52
2023/01/26 02:29:59;;;;;;;30.07;27.43;;;5.70;33.40;;;;;;5009564;28;20424;-51
2023/01/26 02:32:27;;;;;;;29.60;26.90;;;5.70;32.70;;;;;;5008968;28;20174;-53
2023/01/26 02:34:56;;;;;;;32.73;29.97;;;5.70;33.30;;;;;;5008510;28;20448;-52
2023/01/26 02:37:23;;;;;;;30.30;27.70;;;5.70;33.20;;;;;;5010391;28;20428;-53
2023/01/26 02:40:01;;;;;;;29.87;27.17;;;5.60;33.00;;;;;;5009868;28;20787;-51
2023/01/26 02:42:40;;;;;;;29.27;26.67;;;5.60;33.40;;;;;;5010620;28;20420;-54
2023/01/26 02:45:08;;;;;;;30.03;27.13;;;5.60;33.50;;;;;;5009922;28;20813;-51
2023/01/26 02:47:34;;;;;;;28.67;26.27;;;5.60;33.30;;;;;;5009500;28;20460;-54
2023/01/26 02:50:00;;;;;;;30.13;26.80;;;5.60;33.30;;;;;;5010027;28;20459;-50
2023/01/26 02:52:28;;;;;;;28.07;25.70;;;5.60;33.40;;;;;;5008986;28;20471;-52
2023/01/26 02:57:39;;;;;;;24.67;22.57;;;5.40;33.00;;;;;;5011239;28;20419;-50
2023/01/26 03:00:08;;;;;;;29.33;26.93;;;5.40;33.10;;;;;;5009328;28;20408;-52
2023/01/26 03:02:34;;;;;;;27.63;25.13;;;5.40;33.40;;;;;;5009712;28;20416;-52
2023/01/26 03:04:59;;;;;;;28.23;25.83;;;5.40;33.60;;;;;;5009288;28;20444;-50
2023/01/26 03:07:25;;;;;;;29.03;26.53;;;5.50;33.50;;;;;;5009717;28;20213;-48
2023/01/26 03:09:50;;;;;;;26.67;24.27;;;5.50;33.30;;;;;;5008546;28;20170;-52
2023/01/26 03:12:16;;;;;;;27.70;25.33;;;5.60;32.70;;;;;;5010022;28;20198;-52
2023/01/26 03:14:42;;;;;;;26.17;23.87;;;5.50;32.60;;;;;;5008851;28;20173;-51
2023/01/26 03:17:07;;;;;;;28.50;26.00;;;5.50;32.50;;;;;;5009215;28;20525;-53
2023/01/26 03:27:48;;;;;;;29.73;27.17;;;5.40;34.00;;;;;;5010522;28;20418;-49
2023/01/26 03:30:16;;;;;;;26.33;24.23;;;5.40;34.00;;;;;;5008735;28;20416;-52
2023/01/26 03:32:42;;;;;;;26.10;23.90;;;5.40;33.70;;;;;;5008935;28;20455;-51
2023/01/26 03:35:13;;;;;;;24.00;22.00;;;5.40;33.40;;;;;;5010209;28;20495;-50
2023/01/26 03:37:42;;;;;;;26.07;23.97;;;5.40;33.50;;;;;;5008720;28;20417;-63
2023/01/26 03:56:34;;;;;;;26.10;23.87;;;5.40;32.90;;;;;;5008806;28;20903;-64
2023/01/26 03:59:08;;;;;;;26.10;24.00;;;5.40;33.10;;;;;;5008547;28;20428;-65
2023/01/26 04:09:55;;;;;;;25.10;23.20;;;5.30;33.70;;;;;;5009110;28;20761;-63
2023/01/26 04:12:21;;;;;;;27.23;25.07;;;5.30;33.60;;;;;;5008427;28;20420;-63
2023/01/26 04:22:59;;;;;;;26.97;24.83;;;5.10;34.50;;;;;;5009011;28;20414;-63
2023/01/26 04:25:24;;;;;;;26.33;24.23;;;5.10;34.40;;;;;;5007859;28;20920;-63
2023/01/26 04:27:50;;;;;;;26.97;24.77;;;5.10;34.00;;;;;;5007018;28;20173;-64
2023/01/26 04:30:16;;;;;;;26.80;24.70;;;5.20;34.00;;;;;;5007209;28;20173;-63
2023/01/26 04:32:43;;;;;;;24.70;22.60;;;5.20;33.80;;;;;;5007570;28;20188;-63
2023/01/26 04:35:09;;;;;;;26.93;24.53;;;5.20;34.30;;;;;;5007703;28;20440;-63
2023/01/26 04:37:35;;;;;;;25.70;23.53;;;5.20;34.40;;;;;;5007962;28;20761;-64
2023/01/26 04:40:01;;;;;;;26.57;24.43;;;5.20;34.30;;;;;;5007456;28;20431;-63
2023/01/26 04:42:26;;;;;;;26.10;24.00;;;5.30;34.00;;;;;;5007577;28;20665;-63
2023/01/26 04:44:52;;;;;;;25.90;23.80;;;5.40;33.10;;;;;;5007816;28;20208;-64
2023/01/26 04:47:19;;;;;;;24.33;22.43;;;5.40;32.90;;;;;;5007631;28;20580;-63
2023/01/26 04:49:45;;;;;;;24.60;22.60;;;5.40;33.40;;;;;;5007419;28;20511;-64
2023/01/26 04:52:11;;;;;;;23.73;21.73;;;5.50;33.10;;;;;;5007649;28;20508;-64
2023/01/26 04:54:36;;;;;;;23.90;22.00;;;5.50;32.60;;;;;;5007956;28;20917;-63
2023/01/26 04:57:02;;;;;;;23.53;21.73;;;5.60;32.30;;;;;;5007478;28;20185;-63
2023/01/26 04:59:28;;;;;;;25.20;23.20;;;5.70;32.10;;;;;;5007455;28;20185;-64
2023/01/26 05:01:54;;;;;;;24.27;22.40;;;5.80;32.30;;;;;;5007167;28;20423;-64
2023/01/26 05:04:20;;;;;;;24.93;23.03;;;5.80;32.40;;;;;;5007899;28;20656;-64
2023/01/26 05:06:45;;;;;;;24.97;22.87;;;5.90;32.30;;;;;;5007683;28;20507;-63
2023/01/26 05:09:11;;;;;;;27.93;25.67;;;6.00;31.40;;;;;;5007842;28;20221;-63
2023/01/26 05:11:36;;;;;;;25.63;23.53;;;6.00;31.60;;;;;;5007859;28;20182;-64
2023/01/26 05:14:02;;;;;;;24.73;22.93;;;6.00;30.70;;;;;;5008142;28;20255;-64
2023/01/26 05:16:28;;;;;;;25.93;23.93;;;6.00;30.80;;;;;;5007866;28;20235;-63
2023/01/26 05:18:54;;;;;;;25.33;23.43;;;6.00;30.90;;;;;;5008070;28;20416;-64
2023/01/26 05:21:23;;;;;;;24.87;22.83;;;6.00;31.10;;;;;;5008307;28;20268;-64
2023/01/26 05:23:49;;;;;;;24.73;22.50;;;6.00;30.50;;;;;;5008169;28;20472;-63
2023/01/26 05:26:15;;;;;;;29.33;27.00;;;5.80;30.60;;;;;;5008260;28;20491;-64
2023/01/26 05:28:40;;;;;;;25.20;23.30;;;5.70;31.40;;;;;;5008650;28;20782;-63
2023/01/26 05:31:06;;;;;;;26.33;24.23;;;5.70;31.90;;;;;;5008814;28;20181;-62
2023/01/26 05:33:31;;;;;;;27.60;25.33;;;5.70;31.70;;;;;;5008626;28;20622;-62
2023/01/26 05:35:57;;;;;;;25.23;23.30;;;5.70;31.70;;;;;;5008556;28;20189;-62
2023/01/26 05:38:23;;;;;;;24.37;22.47;;;5.60;31.60;;;;;;5006802;28;20615;-62
2023/01/26 05:40:49;;;;;;;26.57;24.47;;;5.60;32.20;;;;;;5006252;28;20189;-62
2023/01/26 05:43:14;;;;;;;23.30;21.67;;;5.60;32.10;;;;;;5009056;28;20194;-63
2023/01/26 05:45:40;;;;;;;23.07;21.27;;;5.50;32.20;;;;;;5009215;28;20192;-62
2023/01/26 05:48:06;;;;;;;25.33;23.23;;;5.50;31.70;;;;;;5008742;28;20198;-62
2023/01/26 05:50:32;;;;;;;23.17;21.27;;;5.50;32.20;;;;;;5008937;28;20221;-62
2023/01/26 05:52:59;;;;;;;21.77;20.17;;;5.50;32.60;;;;;;5008653;28;20830;-62
2023/01/26 05:55:25;;;;;;;22.13;20.43;;;5.50;31.80;;;;;;5010011;28;20416;-62
2023/01/26 05:57:51;;;;;;;24.10;22.10;;;5.30;32.20;;;;;;5010220;28;20450;-62
2023/01/26 06:00:17;;;;;;;23.17;21.37;;;5.30;32.50;;;;;;5010119;28;20956;-63
2023/01/26 06:02:43;;;;;;;21.43;19.80;;;5.30;32.70;;;;;;5009069;28;20208;-63
2023/01/26 06:05:09;;;;;;;21.83;20.23;;;5.30;32.70;;;;;;5009651;28;20408;-63
2023/01/26 06:07:35;;;;;;;22.33;20.70;;;5.20;33.10;;;;;;5009286;28;20201;-63
2023/01/26 06:10:00;;;;;;;21.60;20.00;;;5.30;33.30;;;;;;5010691;28;20428;-63
2023/01/26 06:12:30;;;;;;;22.50;20.30;;;5.30;33.50;;;;;;5012556;28;20212;-62
2023/01/26 06:14:56;;;;;;;22.40;20.60;;;5.30;32.60;;;;;;5013211;28;20184;-63
2023/01/26 06:17:22;;;;;;;24.20;22.40;;;5.30;32.20;;;;;;5013082;28;20425;-63
2023/01/26 06:19:48;;;;;;;23.87;22.07;;;5.30;31.50;;;;;;5012775;28;20787;-63
2023/01/26 06:22:14;;;;;;;23.07;21.37;;;5.10;31.90;;;;;;5012649;28;20424;-63
2023/01/26 06:24:40;;;;;;;25.50;23.60;;;5.00;33.40;;;;;;5012663;28;20197;-63
2023/01/26 06:27:10;;;;;;;23.73;22.03;;;5.00;33.40;;;;;;5012609;28;20475;-62
2023/01/26 06:29:36;;;;;;;25.13;23.33;;;5.10;33.00;;;;;;5012352;28;20589;-63
2023/01/26 06:32:02;;;;;;;24.37;22.53;;;5.20;32.90;;;;;;5012679;28;20417;-63
2023/01/26 06:34:27;;;;;;;23.90;22.30;;;5.30;32.50;;;;;;5002368;28;20205;-63
2023/01/26 06:36:53;;;;;;;26.87;24.70;;;5.10;33.90;;;;;;4992766;28;20236;-64
2023/01/26 06:39:19;;;;;;;26.63;24.70;;;4.70;35.10;;;;;;4993483;28;20181;-64
2023/01/26 06:41:44;;;;;;;26.10;23.70;;;4.60;35.60;;;;;;4992926;28;21028;-64
2023/01/26 06:44:11;;;;;;;26.07;23.53;;;4.60;35.80;;;;;;4998755;28;20178;-64
2023/01/26 06:46:37;;;;;;;25.00;22.87;;;4.80;34.30;;;;;;5001418;28;20475;-64
2023/01/26 06:49:03;;;;;;;24.50;22.67;;;4.90;33.40;;;;;;5008406;28;20419;-52
2023/01/26 06:51:54;;;;;;;24.40;22.60;;;4.90;33.40;;;;;;5012701;28;20494;-51
2023/01/26 06:54:19;;;;;;;23.70;21.80;;;5.00;33.00;;;;;;5012720;28;20432;-53
2023/01/26 06:56:45;;;;;;;27.63;25.40;;;5.00;33.30;;;;;;5012236;28;20435;-55
2023/01/26 06:59:11;;;;;;;26.00;23.83;;;5.00;33.00;;;;;;5013932;28;20683;-52
2023/01/26 07:01:46;;;;;;;26.70;24.70;;;5.00;32.80;;;;;;5003236;28;20697;-52
2023/01/26 07:04:12;;;;;;;25.97;23.97;;;5.10;32.40;;;;;;4992983;28;20182;-54
2023/01/26 07:06:37;;;;;;;24.83;22.73;;;5.10;32.60;;;;;;4994355;28;20551;-54
2023/01/26 07:09:03;;;;;;;22.97;21.30;;;5.20;32.90;;;;;;5012031;28;20417;-52
2023/01/26 07:11:31;;;;;;;23.60;21.80;;;5.30;32.00;;;;;;5011398;28;20177;-52
2023/01/26 07:13:57;;;;;;;23.17;21.47;;;5.30;31.80;;;;;;5011692;28;20785;-53
2023/01/26 07:16:22;;;;;;;23.70;22.00;;;5.40;31.00;;;;;;5012232;28;20503;-52
2023/01/26 07:18:48;;;;;;;24.37;22.33;;;5.40;31.00;;;;;;5012013;28;20416;-53
2023/01/26 07:21:19;;;;;;;24.83;22.90;;;5.40;30.70;;;;;;5013188;28;20221;-52
2023/01/26 07:23:46;;;;;;;23.30;21.50;;;5.40;30.90;;;;;;5011945;28;20272;-50
2023/01/26 07:26:13;;;;;;;23.00;21.20;;;5.40;30.90;;;;;;5011850;28;20825;-50
2023/01/26 07:28:38;;;;;;;24.60;22.70;;;5.40;30.80;;;;;;5011626;28;20913;-64
2023/01/26 07:31:05;;;;;;;24.80;22.70;;;5.40;30.70;;;;;;5011834;28;20512;-64
2023/01/26 07:33:32;;;;;;;24.67;22.33;;;5.40;30.80;;;;;;5011859;28;20178;-64
2023/01/26 07:35:59;;;;;;;27.00;24.80;;;5.50;31.00;;;;;;5011732;28;20420;-64
2023/01/26 07:38:25;;;;;;;24.60;22.70;;;5.50;31.10;;;;;;5011777;28;20971;-64
2023/01/26 07:40:51;;;;;;;24.23;22.40;;;5.50;32.20;;;;;;5011511;28;20897;-63
2023/01/26 07:43:17;;;;;;;24.13;22.23;;;5.50;30.60;;;;;;5011631;28;20405;-64
2023/01/26 07:45:51;;;;;;;23.77;22.00;;;5.50;30.50;;;;;;5011862;28;20421;-64
2023/01/26 07:48:18;;;;;;;29.33;27.03;;;5.40;30.70;;;;;;5011551;28;20514;-63
2023/01/26 07:50:46;;;;;;;27.57;25.37;;;5.40;31.10;;;;;;5011209;28;20408;-63
2023/01/26 07:53:14;;;;;;;24.80;23.00;;;5.30;31.10;;;;;;5011501;28;20476;-63
2023/01/26 07:55:42;;;;;;;24.87;23.07;;;5.30;32.40;;;;;;5007140;28;20429;-65
2023/01/26 07:58:08;;;;;;;29.30;26.90;;;5.20;32.40;;;;;;4991838;28;20479;-65
2023/01/26 08:00:34;;;;;;;27.17;24.87;;;5.20;32.10;;;;;;4992049;28;20421;-64
2023/01/26 08:03:00;;;;;;;24.00;22.20;;;5.30;31.80;;;;;;4991381;28;20413;-64
2023/01/26 08:05:25;;;;;;;26.73;24.33;;;5.10;31.80;;;;;;4991994;28;20320;-64
2023/01/26 08:07:51;;;;;;;23.70;21.90;;;5.00;33.10;;;;;;4991690;28;20254;-60
2023/01/26 08:10:17;;;;;;;23.53;21.73;;;5.10;31.90;;;;;;4992171;28;20622;-61
2023/01/26 08:12:42;;;;;;;21.20;19.60;;;5.20;32.90;;;;;;5011329;28;20177;-62
2023/01/26 08:15:09;;;;;;;21.77;19.97;;;5.30;30.90;;;;;;5011413;28;20920;-59
2023/01/26 08:17:35;;;;;;;23.00;21.30;;;5.40;30.10;;;;;;5011412;28;20185;-61
2023/01/26 08:20:01;;;;;;;22.60;20.80;;;5.40;30.90;;;;;;5011517;28;20419;-62
2023/01/26 08:22:26;;;;;;;28.53;21.87;;;5.50;30.40;;;;;;5011052;28;20464;-63
2023/01/26 08:24:52;;;;;;;25.17;22.87;;;5.60;30.40;;;;;;5011405;28;20451;-63
2023/01/26 08:27:18;;;;;;;26.67;24.20;;;5.60;29.70;;;;;;5012390;28;20296;-63
2023/01/26 08:29:44;;;;;;;22.63;20.80;;;5.50;29.10;;;;;;5011279;28;20656;-63
2023/01/26 08:32:09;;;;;;;23.90;21.03;;;5.40;29.20;;;;;;5010297;28;20181;-63
2023/01/26 08:34:35;;;;;;;23.67;21.73;;;5.30;30.10;;;;;;5011208;28;20412;-63
2023/01/26 08:37:02;;;;;;;23.80;22.00;;;5.40;30.00;;;;;;5010738;28;20249;-62
2023/01/26 08:39:28;;;;;;;20.90;19.23;;;5.40;30.10;;;;;;5010598;28;20173;-63
2023/01/26 08:41:54;;;;;;;25.93;23.70;;;5.50;29.90;;;;;;5010413;28;20420;-63
2023/01/26 08:44:19;;;;;;;23.33;21.50;;;5.50;29.10;;;;;;5011039;28;20428;-63
2023/01/26 08:46:45;;;;;;;22.33;20.53;;;5.60;29.20;;;;;;5010436;28;20468;-63
2023/01/26 08:49:11;;;;;;;27.70;22.50;;;5.50;29.10;;;;;;5010933;28;20287;-62
2023/01/26 08:51:36;;;;;;;20.07;18.57;;;5.50;29.10;;;;;;5010613;28;20174;-62
2023/01/26 08:54:07;;;;;;;24.80;22.47;;;5.50;29.10;;;;;;5010458;28;20193;-63
2023/01/26 08:56:33;;;;;;;21.27;19.40;;;5.40;29.00;;;;;;5010607;28;20181;-62
2023/01/26 08:58:58;;;;;;;21.90;20.10;;;5.50;29.10;;;;;;5010823;28;20416;-62
2023/01/26 09:01:24;;;;;;;22.10;20.40;;;5.50;29.10;;;;;;5010155;28;20425;-62
2023/01/26 09:03:51;;;;;;;23.47;21.70;;;5.50;29.20;;;;;;5011109;28;20542;-63
2023/01/26 09:06:18;;;;;;;23.30;21.40;;;5.50;29.20;;;;;;5010547;28;20459;-63
2023/01/26 09:08:43;;;;;;;22.00;20.17;;;5.50;29.10;;;;;;5010770;28;20412;-63
2023/01/26 09:11:10;;;;;;;25.00;22.73;;;5.50;29.00;;;;;;5002879;28;20925;-62
2023/01/26 09:13:37;;;;;;;24.57;22.57;;;5.60;29.20;;;;;;4991573;28;20551;-62
2023/01/26 09:16:05;;;;;;;22.43;20.60;;;5.50;29.10;;;;;;4991428;28;20786;-63
2023/01/26 09:18:30;;;;;;;23.30;21.40;;;5.50;29.10;;;;;;4991153;28;20417;-63
2023/01/26 09:21:02;;;;;;;24.03;21.97;;;5.50;29.10;;;;;;4991004;28;20436;-62
2023/01/26 09:23:28;;;;;;;24.67;22.70;;;5.40;29.20;;;;;;4991315;28;20178;-63
2023/01/26 09:25:53;;;;;;;23.07;21.17;;;5.40;29.10;;;;;;4991189;28;20467;-63
2023/01/26 09:28:19;;;;;;;23.37;21.53;;;5.40;29.10;;;;;;5010366;28;20231;-62
2023/01/26 09:30:45;;;;;;;21.63;20.13;;;5.40;29.10;;;;;;5010744;28;20178;-62
2023/01/26 09:33:10;;;;;;;22.13;20.60;;;5.30;28.90;;;;;;5010070;28;20180;-62
2023/01/26 09:35:36;;;;;;;22.80;21.00;;;5.30;29.00;;;;;;5010132;28;20173;-63
2023/01/26 09:38:01;;;;;;;24.57;22.37;;;5.30;29.00;;;;;;5010508;28;20197;-62
2023/01/26 09:41:05;;;;;;;22.80;21.10;;;5.30;29.00;;;;;;5010651;28;20181;-60
2023/01/26 09:43:47;;;;;;;23.87;21.87;;;5.30;29.00;;;;;;5010221;28;20239;-54
2023/01/26 09:46:40;;;;;;;23.80;21.83;;;5.30;29.00;;;;;;4996612;28;20825;-54
2023/01/26 09:49:13;;;;;;;22.50;20.90;;;5.20;28.90;;;;;;4994352;28;20837;-54
2023/01/26 09:51:43;;;;;;;22.10;20.40;;;5.20;29.20;;;;;;4994196;28;20440;-54
2023/01/26 09:54:27;;;;;;;24.10;22.23;;;5.20;29.10;;;;;;4993966;28;20441;-52
2023/01/26 09:56:54;;;;;;;23.03;21.23;;;5.30;29.40;;;;;;4999302;28;20473;-54
2023/01/26 09:59:20;;;;;;;23.90;22.10;;;5.20;29.60;;;;;;5013729;28;20434;-49
2023/01/26 10:02:17;;;;;;;23.87;22.10;;;5.20;29.00;;;;;;5013525;28;20424;-52
2023/01/26 10:04:45;;;;;;;21.27;19.67;;;5.20;28.90;;;;;;5013625;28;20292;-53
2023/01/26 10:07:13;;;;;;;23.90;21.43;;;5.20;29.00;;;;;;5013591;28;20471;-50
2023/01/26 10:09:42;;;;;;;26.67;19.60;;;5.20;28.90;;;;;;5017371;28;20427;-51
2023/01/26 10:12:26;;;;;;;21.07;19.17;;;5.10;28.90;;;;;;5025475;28;20550;-53
2023/01/26 10:15:11;;;;;;;21.57;19.87;;;5.20;28.90;;;;;;5012388;28;20419;-53
2023/01/26 10:17:42;;;;;;;19.70;18.50;;;5.30;28.50;;;;;;5015074;28;20416;-53
2023/01/26 10:20:22;;;;;;;21.10;19.47;;;5.30;29.00;;;;;;5014316;28;20927;-54
2023/01/26 10:23:05;;;;;;;19.47;18.17;;;5.30;29.00;;;;;;5013179;28;20423;-51
2023/01/26 10:25:33;;;;;;;21.47;19.73;;;5.30;29.00;;;;;;5013219;28;20832;-51
2023/01/26 10:28:19;;;;;;;18.43;17.03;;;5.30;28.80;;;;;;5010581;28;20459;-53
2023/01/26 10:30:47;;;;;;;18.63;17.33;;;5.20;28.40;;;;;;5009936;28;20440;-51
2023/01/26 10:33:18;;;;;;;22.07;18.77;;;5.20;28.90;;;;;;5013026;28;20428;-53
2023/01/26 10:35:44;;;;;;;20.23;18.63;;;5.10;28.90;;;;;;5013087;28;20515;-52
2023/01/26 10:38:32;;;;;;;19.17;17.87;;;5.20;28.40;;;;;;5014188;28;20804;-61
2023/01/26 10:41:04;;;;;;;15.97;14.97;;;5.20;28.10;;;;;;5021740;28;20179;-60
2023/01/26 10:43:40;;;;;;;16.77;15.60;;;5.20;27.40;;;;;;5012668;28;20405;-60
2023/01/26 10:46:21;;;;;;;21.83;20.13;;;4.80;28.70;;;;;;5012687;28;20466;-60
2023/01/26 10:48:53;;;;;;;20.27;18.63;;;4.90;28.20;;;;;;5012812;28;20404;-60
2023/01/26 10:51:25;;;;;;;17.80;16.50;;;5.00;28.10;;;;;;5012486;28;20420;-60
2023/01/26 10:54:21;;;;;;;18.47;17.20;;;5.10;27.90;;;;;;5012587;28;20427;-60
2023/01/26 10:56:58;;;;;;;17.37;16.23;;;5.20;27.20;;;;;;5007610;28;20432;-60
2023/01/26 10:59:26;;;;;;;17.87;16.50;;;5.10;28.00;;;;;;4993326;28;20939;-60
2023/01/26 11:01:58;;;;;;;17.70;16.60;;;5.10;28.00;;;;;;4992860;28;20807;-61
2023/01/26 11:04:24;;;;;;;18.33;16.20;;;5.20;27.60;;;;;;4993251;28;20418;-61
2023/01/26 11:06:50;;;;;;;19.07;17.77;;;5.30;27.90;;;;;;5002357;28;20798;-61
2023/01/26 11:09:27;;;;;;;17.93;16.70;;;5.30;27.70;;;;;;5012545;28;20431;-61
2023/01/26 11:12:04;;;;;;;17.30;16.20;;;5.30;27.40;;;;;;5012211;28;20475;-61
2023/01/26 11:14:31;;;;;;;17.90;16.80;;;5.30;27.20;;;;;;5012799;28;20423;-61
2023/01/26 11:17:15;;;;;;;17.73;16.73;;;5.40;27.00;;;;;;5012506;28;20425;-60
2023/01/26 11:20:28;;;;;;;23.73;21.77;;;5.40;27.10;;;;;;5012529;28;20637;-60
2023/01/26 11:23:18;;;;;;;26.90;24.60;;;5.40;27.30;;;;;;5014025;28;20427;-61
2023/01/26 11:26:18;;;;;;;20.70;19.17;;;5.40;27.50;;;;;;5014340;28;20927;-61
2023/01/26 11:28:53;;;;;;;20.67;18.83;;;5.30;28.00;;;;;;5012078;28;20435;-60
2023/01/26 11:31:40;;;;;;;20.90;19.40;;;5.20;28.40;;;;;;5011915;28;20466;-60
2023/01/26 11:34:27;;;;;;;20.13;18.63;;;5.10;28.90;;;;;;5011990;28;20412;-60
2023/01/26 11:36:53;;;;;;;19.90;18.50;;;4.90;29.40;;;;;;5012174;28;20419;-60
2023/01/26 11:39:37;;;;;;;21.30;19.80;;;4.90;29.00;;;;;;5012378;28;20921;-60
2023/01/26 11:42:22;;;;;;;20.30;18.70;;;4.90;28.80;;;;;;5011520;28;20188;-60
2023/01/26 11:44:59;;;;;;;18.67;17.37;;;5.00;29.00;;;;;;5011880;28;20404;-60
2023/01/26 11:47:37;;;;;;;19.07;17.80;;;5.00;28.80;;;;;;5012095;28;20490;-60
2023/01/26 11:50:21;;;;;;;21.67;20.17;;;4.90;29.40;;;;;;5011860;28;20785;-61
2023/01/26 11:52:53;;;;;;;18.90;17.60;;;5.00;28.80;;;;;;5011623;28;20499;-60
2023/01/26 11:55:29;;;;;;;19.60;18.20;;;5.00;28.80;;;;;;5011728;28;20418;-60
2023/01/26 11:58:26;;;;;;;19.50;18.00;;;5.00;28.80;;;;;;5011483;28;20451;-60
2023/01/26 12:00:56;;;;;;;18.53;17.23;;;5.00;28.60;;;;;;5011810;28;20958;-61
2023/01/26 12:03:45;;;;;;;19.43;17.90;;;4.80;28.90;;;;;;5011668;28;20428;-60
2023/01/26 12:06:18;;;;;;;19.80;18.40;;;4.40;30.20;;;;;;5010940;28;20506;-60
2023/01/26 12:09:01;;;;;;;19.57;18.30;;;4.40;29.70;;;;;;5010919;28;20420;-60
2023/01/26 12:11:37;;;;;;;18.63;17.03;;;4.50;29.70;;;;;;5011395;28;20967;-61
2023/01/26 12:14:07;;;;;;;18.93;17.63;;;4.60;29.40;;;;;;5011443;28;20856;-61
2023/01/26 12:16:41;;;;;;;18.67;17.47;;;4.60;29.10;;;;;;5011297;28;20431;-61
2023/01/26 12:19:45;;;;;;;19.07;17.80;;;4.70;28.90;;;;;;5010919;28;20507;-61
2023/01/26 12:22:19;;;;;;;17.57;16.37;;;4.80;28.70;;;;;;5012347;28;20419;-61
2023/01/26 12:24:53;;;;;;;18.20;16.87;;;4.90;28.20;;;;;;5011393;28;20411;-61
2023/01/26 12:27:33;;;;;;;18.03;16.63;;;5.00;27.60;;;;;;5011479;28;20460;-60
2023/01/26 12:30:03;;;;;;;17.43;16.23;;;5.20;27.60;;;;;;4991635;28;20413;-60
2023/01/26 12:32:28;;;;;;;17.90;16.63;;;5.20;27.30;;;;;;5006268;28;20420;-60
2023/01/26 12:34:54;;;;;;;18.00;16.70;;;5.30;26.80;;;;;;5010973;28;20500;-53
2023/01/26 12:37:41;;;;;;;17.40;16.30;;;5.40;26.70;;;;;;5011026;28;20268;-51
2023/01/26 12:40:16;;;;;;;17.27;15.97;;;5.40;26.50;;;;;;5010872;28;20188;-50
2023/01/26 12:43:23;;;;;;;17.53;16.33;;;5.50;26.50;;;;;;5010658;28;20415;-50
2023/01/26 12:45:53;;;;;;;18.10;16.90;;;5.50;26.70;;;;;;5010904;28;20416;-52
2023/01/26 12:48:32;;;;;;;19.90;18.43;;;5.30;27.20;;;;;;5010963;28;20470;-61
2023/01/26 12:51:03;;;;;;;18.50;17.30;;;5.30;27.00;;;;;;5010666;28;20420;-61
2023/01/26 12:53:53;;;;;;;20.40;18.90;;;5.20;26.80;;;;;;5010812;28;20523;-61
2023/01/26 12:56:33;;;;;;;19.20;17.80;;;4.90;27.80;;;;;;5010866;28;20419;-60
2023/01/26 12:59:05;;;;;;;20.50;19.03;;;4.80;28.70;;;;;;5010789;28;20489;-60
2023/01/26 13:01:40;;;;;;;21.07;19.40;;;4.70;29.00;;;;;;5012059;28;20447;-60
2023/01/26 13:04:12;;;;;;;19.80;18.40;;;4.70;29.70;;;;;;5010508;28;20422;-60
2023/01/26 13:06:38;;;;;;;19.77;18.20;;;4.70;28.60;;;;;;5010616;28;20563;-61
2023/01/26 13:09:21;;;;;;;19.90;18.40;;;4.80;28.70;;;;;;5010641;28;20415;-61
2023/01/26 13:11:51;;;;;;;18.70;17.40;;;4.90;28.80;;;;;;5010430;28;20781;-60
2023/01/26 13:14:36;;;;;;;20.90;19.40;;;5.00;28.80;;;;;;5011929;28;20439;-61
2023/01/26 13:17:14;;;;;;;19.80;18.00;;;4.90;28.80;;;;;;5010602;28;20944;-61
2023/01/26 13:19:43;;;;;;;21.17;19.50;;;4.90;28.80;;;;;;5013273;28;20439;-61
2023/01/26 13:22:39;;;;;;;20.10;18.60;;;4.90;28.80;;;;;;5014339;28;20892;-61
2023/01/26 13:25:12;;;;;;;19.80;18.30;;;4.80;28.70;;;;;;5014498;28;20449;-61
2023/01/26 13:27:38;;;;;;;19.47;18.07;;;4.90;28.80;;;;;;5014359;28;20459;-61
2023/01/26 13:30:22;;;;;;;19.10;17.73;;;4.90;28.80;;;;;;5014410;28;20926;-61
2023/01/26 13:32:48;;;;;;;20.23;18.63;;;4.90;28.80;;;;;;5014100;28;20169;-60
2023/01/26 13:35:17;;;;;;;18.80;17.63;;;4.90;28.80;;;;;;5014303;28;20431;-60
2023/01/26 13:37:52;;;;;;;20.20;18.80;;;4.90;28.70;;;;;;5014324;28;20268;-61